sensor_id;sensor_type;location;lat;lon;timestamp;temperature;humidity
59162;DHT22;44942;48.936;8.260;2023-06-22T00:03:30;28.70;53.90
59162;DHT22;44942;48.936;8.260;2023-06-22T00:08:31;28.60;53.90
59162;DHT22;44942;48.936;8.260;2023-06-22T00:13:31;28.60;53.80
59162;DHT22;44942;48.936;8.260;2023-06-22T00:18:32;28.60;53.90
59162;DHT22;44942;48.936;8.260;2023-06-22T00:23:32;28.60;53.90
59162;DHT22;44942;48.936;8.260;2023-06-22T00:28:34;28.60;54.00
59162;DHT22;44942;48.936;8.260;2023-06-22T00:33:35;28.60;54.20
59162;DHT22;44942;48.936;8.260;2023-06-22T00:38:35;28.60;54.50
59162;DHT22;44942;48.936;8.260;2023-06-22T00:43:40;28.60;54.90
59162;DHT22;44942;48.936;8.260;2023-06-22T00:48:42;28.50;55.20
59162;DHT22;44942;48.936;8.260;2023-06-22T00:53:44;28.50;55.40
59162;DHT22;44942;48.936;8.260;2023-06-22T00:58:45;28.50;55.60
59162;DHT22;44942;48.936;8.260;2023-06-22T01:03:46;28.50;55.70
59162;DHT22;44942;48.936;8.260;2023-06-22T01:14:15;28.40;56.00
59162;DHT22;44942;48.936;8.260;2023-06-22T01:29:58;28.30;56.10
59162;DHT22;44942;48.936;8.260;2023-06-22T01:35:01;28.30;56.20
59162;DHT22;44942;48.936;8.260;2023-06-22T01:40:04;28.20;56.30
59162;DHT22;44942;48.936;8.260;2023-06-22T01:45:06;28.20;56.50
59162;DHT22;44942;48.936;8.260;2023-06-22T01:50:07;28.20;56.60
59162;DHT22;44942;48.936;8.260;2023-06-22T01:55:09;28.10;56.60
59162;DHT22;44942;48.936;8.260;2023-06-22T02:00:10;28.10;56.70
59162;DHT22;44942;48.936;8.260;2023-06-22T02:05:11;28.10;56.80
59162;DHT22;44942;48.936;8.260;2023-06-22T02:10:15;28.10;56.90
59162;DHT22;44942;48.936;8.260;2023-06-22T02:15:17;28.00;56.90
59162;DHT22;44942;48.936;8.260;2023-06-22T02:20:17;28.00;57.00
59162;DHT22;44942;48.936;8.260;2023-06-22T02:25:18;28.00;57.00
59162;DHT22;44942;48.936;8.260;2023-06-22T02:30:22;28.00;57.10
59162;DHT22;44942;48.936;8.260;2023-06-22T02:35:23;27.90;57.10
59162;DHT22;44942;48.936;8.260;2023-06-22T02:40:23;27.90;57.30
59162;DHT22;44942;48.936;8.260;2023-06-22T02:45:24;27.80;57.10
59162;DHT22;44942;48.936;8.260;2023-06-22T02:50:24;27.80;57.20
59162;DHT22;44942;48.936;8.260;2023-06-22T02:55:25;27.80;57.20
59162;DHT22;44942;48.936;8.260;2023-06-22T03:00:25;27.80;57.30
59162;DHT22;44942;48.936;8.260;2023-06-22T03:05:30;27.80;57.30
59162;DHT22;44942;48.936;8.260;2023-06-22T03:10:33;27.70;57.30
59162;DHT22;44942;48.936;8.260;2023-06-22T03:15:33;27.70;57.30
59162;DHT22;44942;48.936;8.260;2023-06-22T03:20:34;27.80;57.30
59162;DHT22;44942;48.936;8.260;2023-06-22T03:25:34;27.70;57.30
59162;DHT22;44942;48.936;8.260;2023-06-22T03:30:35;27.70;57.30
59162;DHT22;44942;48.936;8.260;2023-06-22T03:35:35;27.70;57.30
59162;DHT22;44942;48.936;8.260;2023-06-22T03:40:36;27.70;57.30
59162;DHT22;44942;48.936;8.260;2023-06-22T03:45:36;27.60;57.20
59162;DHT22;44942;48.936;8.260;2023-06-22T03:50:37;27.60;57.20
59162;DHT22;44942;48.936;8.260;2023-06-22T03:55:40;27.60;57.20
59162;DHT22;44942;48.936;8.260;2023-06-22T04:00:40;27.60;57.20
59162;DHT22;44942;48.936;8.260;2023-06-22T04:05:41;27.50;57.30
59162;DHT22;44942;48.936;8.260;2023-06-22T04:10:42;27.60;57.30
59162;DHT22;44942;48.936;8.260;2023-06-22T04:15:43;27.60;57.40
59162;DHT22;44942;48.936;8.260;2023-06-22T04:20:43;27.50;57.30
59162;DHT22;44942;48.936;8.260;2023-06-22T04:25:47;27.50;57.30
59162;DHT22;44942;48.936;8.260;2023-06-22T04:30:47;27.50;57.40
59162;DHT22;44942;48.936;8.260;2023-06-22T04:35:48;27.50;57.40
59162;DHT22;44942;48.936;8.260;2023-06-22T04:41:14;27.50;57.50
59162;DHT22;44942;48.936;8.260;2023-06-22T04:46:30;27.40;57.40
59162;DHT22;44942;48.936;8.260;2023-06-22T04:51:30;27.50;57.60
59162;DHT22;44942;48.936;8.260;2023-06-22T04:56:31;27.40;57.50
59162;DHT22;44942;48.936;8.260;2023-06-22T05:01:31;27.40;57.50
59162;DHT22;44942;48.936;8.260;2023-06-22T05:06:32;27.50;57.60
59162;DHT22;44942;48.936;8.260;2023-06-22T05:11:32;27.50;58.30
59162;DHT22;44942;48.936;8.260;2023-06-22T05:16:33;27.50;57.60
59162;DHT22;44942;48.936;8.260;2023-06-22T05:21:33;27.50;57.60
59162;DHT22;44942;48.936;8.260;2023-06-22T05:26:34;27.50;57.80
59162;DHT22;44942;48.936;8.260;2023-06-22T05:31:35;27.50;57.80
59162;DHT22;44942;48.936;8.260;2023-06-22T05:36:35;27.50;57.80
59162;DHT22;44942;48.936;8.260;2023-06-22T05:41:36;27.50;57.70
59162;DHT22;44942;48.936;8.260;2023-06-22T05:46:36;27.50;57.70
59162;DHT22;44942;48.936;8.260;2023-06-22T05:51:37;27.50;57.80
59162;DHT22;44942;48.936;8.260;2023-06-22T05:56:37;27.50;57.70
59162;DHT22;44942;48.936;8.260;2023-06-22T06:01:38;27.50;57.70
59162;DHT22;44942;48.936;8.260;2023-06-22T06:06:40;27.50;57.70
59162;DHT22;44942;48.936;8.260;2023-06-22T06:11:40;27.50;57.80
59162;DHT22;44942;48.936;8.260;2023-06-22T06:16:41;27.50;57.70
59162;DHT22;44942;48.936;8.260;2023-06-22T06:21:41;27.50;57.80
59162;DHT22;44942;48.936;8.260;2023-06-22T06:26:42;27.50;57.90
59162;DHT22;44942;48.936;8.260;2023-06-22T06:31:42;27.50;58.60
59162;DHT22;44942;48.936;8.260;2023-06-22T06:36:43;27.50;58.00
59162;DHT22;44942;48.936;8.260;2023-06-22T06:41:44;27.50;58.00
59162;DHT22;44942;48.936;8.260;2023-06-22T06:46:45;27.50;58.10
59162;DHT22;44942;48.936;8.260;2023-06-22T06:51:45;27.50;58.10
59162;DHT22;44942;48.936;8.260;2023-06-22T06:56:46;27.50;58.20
59162;DHT22;44942;48.936;8.260;2023-06-22T07:01:48;27.60;58.30
59162;DHT22;44942;48.936;8.260;2023-06-22T07:06:48;27.60;58.30
59162;DHT22;44942;48.936;8.260;2023-06-22T07:11:49;27.60;58.30
59162;DHT22;44942;48.936;8.260;2023-06-22T07:16:49;27.60;58.30
59162;DHT22;44942;48.936;8.260;2023-06-22T07:21:50;27.60;58.40
59162;DHT22;44942;48.936;8.260;2023-06-22T07:26:50;27.70;58.50
59162;DHT22;44942;48.936;8.260;2023-06-22T07:31:51;27.70;58.50
59162;DHT22;44942;48.936;8.260;2023-06-22T07:36:51;27.70;58.50
59162;DHT22;44942;48.936;8.260;2023-06-22T07:41:54;27.70;58.60
59162;DHT22;44942;48.936;8.260;2023-06-22T07:46:55;27.80;58.50
59162;DHT22;44942;48.936;8.260;2023-06-22T07:51:55;27.80;58.50
59162;DHT22;44942;48.936;8.260;2023-06-22T07:56:56;27.80;58.50
59162;DHT22;44942;48.936;8.260;2023-06-22T08:01:56;27.80;58.40
59162;DHT22;44942;48.936;8.260;2023-06-22T08:06:57;27.90;58.40
59162;DHT22;44942;48.936;8.260;2023-06-22T08:11:58;27.90;58.40
59162;DHT22;44942;48.936;8.260;2023-06-22T08:16:59;27.90;58.20
59162;DHT22;44942;48.936;8.260;2023-06-22T08:22:02;28.00;58.10
59162;DHT22;44942;48.936;8.260;2023-06-22T08:27:15;28.00;57.90
59162;DHT22;44942;48.936;8.260;2023-06-22T08:32:17;28.10;57.80
59162;DHT22;44942;48.936;8.260;2023-06-22T08:37:18;28.10;57.70
59162;DHT22;44942;48.936;8.260;2023-06-22T08:42:18;28.10;57.60
59162;DHT22;44942;48.936;8.260;2023-06-22T08:47:19;28.10;57.50
59162;DHT22;44942;48.936;8.260;2023-06-22T08:52:20;28.10;57.40
59162;DHT22;44942;48.936;8.260;2023-06-22T08:57:21;28.10;57.30
59162;DHT22;44942;48.936;8.260;2023-06-22T09:02:21;28.20;57.30
59162;DHT22;44942;48.936;8.260;2023-06-22T09:07:22;28.20;57.20
59162;DHT22;44942;48.936;8.260;2023-06-22T09:12:24;28.20;57.20
59162;DHT22;44942;48.936;8.260;2023-06-22T09:17:27;28.20;57.10
59162;DHT22;44942;48.936;8.260;2023-06-22T09:22:28;28.20;57.10
59162;DHT22;44942;48.936;8.260;2023-06-22T09:27:32;28.30;57.20
59162;DHT22;44942;48.936;8.260;2023-06-22T09:32:33;28.30;57.10
59162;DHT22;44942;48.936;8.260;2023-06-22T09:37:34;28.30;57.00
59162;DHT22;44942;48.936;8.260;2023-06-22T09:42:34;28.30;57.00
59162;DHT22;44942;48.936;8.260;2023-06-22T09:47:35;28.30;57.00
59162;DHT22;44942;48.936;8.260;2023-06-22T09:52:35;28.30;56.90
59162;DHT22;44942;48.936;8.260;2023-06-22T09:57:36;28.30;56.90
59162;DHT22;44942;48.936;8.260;2023-06-22T10:02:36;28.40;57.00
59162;DHT22;44942;48.936;8.260;2023-06-22T10:07:36;28.40;56.90
59162;DHT22;44942;48.936;8.260;2023-06-22T10:12:45;28.40;56.90
59162;DHT22;44942;48.936;8.260;2023-06-22T10:17:48;28.40;56.90
59162;DHT22;44942;48.936;8.260;2023-06-22T10:22:48;28.40;56.80
59162;DHT22;44942;48.936;8.260;2023-06-22T10:27:49;28.40;56.80
59162;DHT22;44942;48.936;8.260;2023-06-22T10:32:49;28.40;56.80
59162;DHT22;44942;48.936;8.260;2023-06-22T10:37:50;28.40;56.90
59162;DHT22;44942;48.936;8.260;2023-06-22T10:42:51;28.40;56.80
59162;DHT22;44942;48.936;8.260;2023-06-22T10:47:51;28.50;56.80
59162;DHT22;44942;48.936;8.260;2023-06-22T10:52:52;28.50;56.80
59162;DHT22;44942;48.936;8.260;2023-06-22T10:57:52;28.50;56.80
59162;DHT22;44942;48.936;8.260;2023-06-22T11:02:53;28.50;56.70
59162;DHT22;44942;48.936;8.260;2023-06-22T11:07:53;28.50;56.70
59162;DHT22;44942;48.936;8.260;2023-06-22T11:13:00;28.50;56.70
59162;DHT22;44942;48.936;8.260;2023-06-22T11:18:00;28.50;56.70
59162;DHT22;44942;48.936;8.260;2023-06-22T11:23:01;28.60;56.80
59162;DHT22;44942;48.936;8.260;2023-06-22T11:28:02;28.60;56.80
59162;DHT22;44942;48.936;8.260;2023-06-22T11:33:03;28.60;56.70
59162;DHT22;44942;48.936;8.260;2023-06-22T11:38:03;28.60;56.70
59162;DHT22;44942;48.936;8.260;2023-06-22T11:43:05;28.60;56.70
59162;DHT22;44942;48.936;8.260;2023-06-22T11:48:05;28.60;56.70
59162;DHT22;44942;48.936;8.260;2023-06-22T11:53:06;28.60;56.70
59162;DHT22;44942;48.936;8.260;2023-06-22T11:58:06;28.60;56.70
59162;DHT22;44942;48.936;8.260;2023-06-22T12:03:07;28.60;56.60
59162;DHT22;44942;48.936;8.260;2023-06-22T12:08:07;28.60;56.60
59162;DHT22;44942;48.936;8.260;2023-06-22T12:13:08;28.70;56.70
59162;DHT22;44942;48.936;8.260;2023-06-22T12:18:08;28.70;56.60
59162;DHT22;44942;48.936;8.260;2023-06-22T12:23:09;28.70;56.60
59162;DHT22;44942;48.936;8.260;2023-06-22T12:28:09;28.70;56.70
59162;DHT22;44942;48.936;8.260;2023-06-22T12:33:10;28.70;56.60
59162;DHT22;44942;48.936;8.260;2023-06-22T12:38:11;28.70;56.60
59162;DHT22;44942;48.936;8.260;2023-06-22T12:43:11;28.70;56.50
59162;DHT22;44942;48.936;8.260;2023-06-22T12:48:11;28.70;56.50
59162;DHT22;44942;48.936;8.260;2023-06-22T12:53:13;28.70;56.40
59162;DHT22;44942;48.936;8.260;2023-06-22T12:58:13;28.80;56.60
59162;DHT22;44942;48.936;8.260;2023-06-22T13:03:14;28.80;56.50
59162;DHT22;44942;48.936;8.260;2023-06-22T13:08:14;28.80;56.50
59162;DHT22;44942;48.936;8.260;2023-06-22T13:13:15;28.80;56.40
59162;DHT22;44942;48.936;8.260;2023-06-22T13:18:15;28.80;56.40
59162;DHT22;44942;48.936;8.260;2023-06-22T13:23:16;28.80;56.40
59162;DHT22;44942;48.936;8.260;2023-06-22T13:28:16;28.80;56.30
59162;DHT22;44942;48.936;8.260;2023-06-22T13:33:17;28.80;56.40
59162;DHT22;44942;48.936;8.260;2023-06-22T13:38:17;28.80;56.30
59162;DHT22;44942;48.936;8.260;2023-06-22T13:43:17;28.80;56.30
59162;DHT22;44942;48.936;8.260;2023-06-22T13:48:18;28.80;56.20
59162;DHT22;44942;48.936;8.260;2023-06-22T13:53:19;28.80;56.30
59162;DHT22;44942;48.936;8.260;2023-06-22T13:58:19;28.90;56.30
59162;DHT22;44942;48.936;8.260;2023-06-22T14:03:20;28.90;56.30
59162;DHT22;44942;48.936;8.260;2023-06-22T14:08:20;28.90;56.30
59162;DHT22;44942;48.936;8.260;2023-06-22T14:13:23;28.90;56.30
59162;DHT22;44942;48.936;8.260;2023-06-22T14:18:24;28.90;56.30
59162;DHT22;44942;48.936;8.260;2023-06-22T14:23:24;28.90;56.20
59162;DHT22;44942;48.936;8.260;2023-06-22T14:28:25;28.90;56.20
59162;DHT22;44942;48.936;8.260;2023-06-22T14:33:25;28.90;56.20
59162;DHT22;44942;48.936;8.260;2023-06-22T14:38:26;29.00;56.30
59162;DHT22;44942;48.936;8.260;2023-06-22T14:43:27;29.00;56.30
59162;DHT22;44942;48.936;8.260;2023-06-22T14:48:28;29.00;56.40
59162;DHT22;44942;48.936;8.260;2023-06-22T14:53:28;29.00;56.40
59162;DHT22;44942;48.936;8.260;2023-06-22T14:58:32;29.00;56.40
59162;DHT22;44942;48.936;8.260;2023-06-22T15:03:36;29.10;56.50
59162;DHT22;44942;48.936;8.260;2023-06-22T15:08:37;29.10;56.60
59162;DHT22;44942;48.936;8.260;2023-06-22T15:13:39;29.10;56.80
59162;DHT22;44942;48.936;8.260;2023-06-22T15:18:40;29.10;57.00
59162;DHT22;44942;48.936;8.260;2023-06-22T15:23:41;29.10;57.00
59162;DHT22;44942;48.936;8.260;2023-06-22T15:28:41;29.20;57.20
59162;DHT22;44942;48.936;8.260;2023-06-22T15:33:42;29.20;57.30
59162;DHT22;44942;48.936;8.260;2023-06-22T15:38:42;29.30;57.30
59162;DHT22;44942;48.936;8.260;2023-06-22T15:43:43;29.30;57.30
59162;DHT22;44942;48.936;8.260;2023-06-22T15:48:44;29.30;57.20
59162;DHT22;44942;48.936;8.260;2023-06-22T15:53:44;29.30;57.20
59162;DHT22;44942;48.936;8.260;2023-06-22T15:58:54;29.30;57.10
59162;DHT22;44942;48.936;8.260;2023-06-22T16:03:56;29.40;57.10
59162;DHT22;44942;48.936;8.260;2023-06-22T16:08:57;29.40;57.00
59162;DHT22;44942;48.936;8.260;2023-06-22T16:13:58;29.40;57.00
59162;DHT22;44942;48.936;8.260;2023-06-22T16:18:58;29.50;57.00
59162;DHT22;44942;48.936;8.260;2023-06-22T16:23:59;29.50;57.00
59162;DHT22;44942;48.936;8.260;2023-06-22T16:28:59;29.50;56.80
59162;DHT22;44942;48.936;8.260;2023-06-22T16:34:00;29.60;56.80
59162;DHT22;44942;48.936;8.260;2023-06-22T16:39:00;29.60;56.80
59162;DHT22;44942;48.936;8.260;2023-06-22T16:44:00;29.70;56.70
59162;DHT22;44942;48.936;8.260;2023-06-22T16:49:05;29.70;56.60
59162;DHT22;44942;48.936;8.260;2023-06-22T16:54:05;29.70;56.60
59162;DHT22;44942;48.936;8.260;2023-06-22T16:59:07;29.70;56.50
59162;DHT22;44942;48.936;8.260;2023-06-22T17:04:07;29.70;56.40
59162;DHT22;44942;48.936;8.260;2023-06-22T17:09:11;29.70;56.30
59162;DHT22;44942;48.936;8.260;2023-06-22T17:14:11;29.70;56.10
59162;DHT22;44942;48.936;8.260;2023-06-22T17:19:12;29.80;56.10
59162;DHT22;44942;48.936;8.260;2023-06-22T17:24:15;29.80;56.00
59162;DHT22;44942;48.936;8.260;2023-06-22T17:29:17;29.80;56.00
59162;DHT22;44942;48.936;8.260;2023-06-22T17:34:17;29.80;55.90
59162;DHT22;44942;48.936;8.260;2023-06-22T17:39:22;29.80;55.80
59162;DHT22;44942;48.936;8.260;2023-06-22T17:44:23;29.70;55.60
59162;DHT22;44942;48.936;8.260;2023-06-22T17:49:28;29.70;55.50
59162;DHT22;44942;48.936;8.260;2023-06-22T17:54:29;29.70;55.30
59162;DHT22;44942;48.936;8.260;2023-06-22T17:59:31;29.70;55.00
59162;DHT22;44942;48.936;8.260;2023-06-22T18:04:32;29.70;54.80
59162;DHT22;44942;48.936;8.260;2023-06-22T18:09:32;29.80;54.60
59162;DHT22;44942;48.936;8.260;2023-06-22T18:14:33;29.70;54.30
59162;DHT22;44942;48.936;8.260;2023-06-22T18:19:34;29.70;54.00
59162;DHT22;44942;48.936;8.260;2023-06-22T18:24:37;29.70;53.90
59162;DHT22;44942;48.936;8.260;2023-06-22T18:29:39;29.70;53.60
59162;DHT22;44942;48.936;8.260;2023-06-22T18:34:39;29.70;53.40
59162;DHT22;44942;48.936;8.260;2023-06-22T18:39:42;29.70;53.40
59162;DHT22;44942;48.936;8.260;2023-06-22T18:44:43;29.70;53.30
59162;DHT22;44942;48.936;8.260;2023-06-22T18:54:46;29.70;53.10
59162;DHT22;44942;48.936;8.260;2023-06-22T19:04:48;29.70;52.80
59162;DHT22;44942;48.936;8.260;2023-06-22T19:10:20;29.70;52.80
59162;DHT22;44942;48.936;8.260;2023-06-22T19:15:10;29.60;52.70
59162;DHT22;44942;48.936;8.260;2023-06-22T19:20:11;29.70;52.80
59162;DHT22;44942;48.936;8.260;2023-06-22T19:25:16;29.60;52.80
59162;DHT22;44942;48.936;8.260;2023-06-22T19:30:17;29.60;52.80
59162;DHT22;44942;48.936;8.260;2023-06-22T19:35:19;29.60;52.90
59162;DHT22;44942;48.936;8.260;2023-06-22T19:40:19;29.60;52.70
59162;DHT22;44942;48.936;8.260;2023-06-22T19:45:20;29.60;52.70
59162;DHT22;44942;48.936;8.260;2023-06-22T19:50:20;29.60;52.60
59162;DHT22;44942;48.936;8.260;2023-06-22T19:55:21;29.60;52.60
59162;DHT22;44942;48.936;8.260;2023-06-22T20:00:21;29.50;52.30
59162;DHT22;44942;48.936;8.260;2023-06-22T20:05:22;29.50;52.00
59162;DHT22;44942;48.936;8.260;2023-06-22T20:10:23;29.40;51.80
59162;DHT22;44942;48.936;8.260;2023-06-22T20:15:25;29.40;52.00
59162;DHT22;44942;48.936;8.260;2023-06-22T20:20:27;29.30;52.40
59162;DHT22;44942;48.936;8.260;2023-06-22T20:25:29;29.20;52.90
59162;DHT22;44942;48.936;8.260;2023-06-22T20:30:30;29.00;53.30
59162;DHT22;44942;48.936;8.260;2023-06-22T20:35:31;28.90;53.70
59162;DHT22;44942;48.936;8.260;2023-06-22T20:40:33;28.80;54.00
59162;DHT22;44942;48.936;8.260;2023-06-22T20:45:33;28.80;54.30
59162;DHT22;44942;48.936;8.260;2023-06-22T20:50:34;28.70;54.50
59162;DHT22;44942;48.936;8.260;2023-06-22T20:55:34;28.70;54.80
59162;DHT22;44942;48.936;8.260;2023-06-22T21:00:39;28.60;54.80
59162;DHT22;44942;48.936;8.260;2023-06-22T21:05:40;28.60;55.00
59162;DHT22;44942;48.936;8.260;2023-06-22T21:10:40;28.50;55.10
59162;DHT22;44942;48.936;8.260;2023-06-22T21:15:41;28.50;55.40
59162;DHT22;44942;48.936;8.260;2023-06-22T21:20:41;28.40;55.40
59162;DHT22;44942;48.936;8.260;2023-06-22T21:25:42;28.40;55.60
59162;DHT22;44942;48.936;8.260;2023-06-22T21:30:43;28.30;55.70
59162;DHT22;44942;48.936;8.260;2023-06-22T21:35:44;28.20;56.00
59162;DHT22;44942;48.936;8.260;2023-06-22T21:40:44;28.10;56.20
59162;DHT22;44942;48.936;8.260;2023-06-22T21:45:44;28.00;56.60
59162;DHT22;44942;48.936;8.260;2023-06-22T21:50:45;27.90;56.60
59162;DHT22;44942;48.936;8.260;2023-06-22T21:55:46;27.90;56.70
59162;DHT22;44942;48.936;8.260;2023-06-22T22:00:46;27.90;56.70
59162;DHT22;44942;48.936;8.260;2023-06-22T22:05:47;27.90;56.80
59162;DHT22;44942;48.936;8.260;2023-06-22T22:10:47;27.80;56.80
59162;DHT22;44942;48.936;8.260;2023-06-22T22:15:48;27.80;56.90
59162;DHT22;44942;48.936;8.260;2023-06-22T22:20:49;27.90;57.00
59162;DHT22;44942;48.936;8.260;2023-06-22T22:25:49;27.90;57.10
59162;DHT22;44942;48.936;8.260;2023-06-22T22:30:50;27.80;57.00
59162;DHT22;44942;48.936;8.260;2023-06-22T22:35:51;27.80;57.10
59162;DHT22;44942;48.936;8.260;2023-06-22T22:40:52;27.80;57.10
59162;DHT22;44942;48.936;8.260;2023-06-22T22:46:04;27.80;57.10
59162;DHT22;44942;48.936;8.260;2023-06-22T22:51:11;27.70;57.10
59162;DHT22;44942;48.936;8.260;2023-06-22T22:56:11;27.70;57.20
59162;DHT22;44942;48.936;8.260;2023-06-22T23:01:15;27.70;57.20
59162;DHT22;44942;48.936;8.260;2023-06-22T23:06:18;27.70;57.20
59162;DHT22;44942;48.936;8.260;2023-06-22T23:11:19;27.70;57.10
59162;DHT22;44942;48.936;8.260;2023-06-22T23:16:19;27.70;57.20
59162;DHT22;44942;48.936;8.260;2023-06-22T23:21:20;27.60;57.10
59162;DHT22;44942;48.936;8.260;2023-06-22T23:26:24;27.60;57.10
59162;DHT22;44942;48.936;8.260;2023-06-22T23:31:25;27.60;57.00
59162;DHT22;44942;48.936;8.260;2023-06-22T23:36:26;27.60;56.90
59162;DHT22;44942;48.936;8.260;2023-06-22T23:41:26;27.60;56.90
59162;DHT22;44942;48.936;8.260;2023-06-22T23:46:27;27.60;57.50
59162;DHT22;44942;48.936;8.260;2023-06-22T23:51:31;27.60;56.70
59162;DHT22;44942;48.936;8.260;2023-06-22T23:56:37;27.60;56.70
